NCAR-RAP Real-Time Weather Data

Output produced by METARs form (23 April 2019  08:56 UTC)
found at http://weather.rap.ucar.edu/surface/
 
KDCA 230752Z 19003KT 10SM CLR 13/10 A3006 RMK AO2 SLP177 T01330100
KDCA 230652Z 21003KT 10SM CLR 14/09 A3007 RMK AO2 SLP181 T01440089
KDCA 230552Z 19004KT 10SM CLR 15/11 A3008 RMK AO2 SLP184 T01500111 10217 20150 58001
KDCA 230452Z 19006KT 10SM CLR 16/12 A3008 RMK AO2 SLP185 T01560117 402330128
KDCA 230352Z 17006KT 10SM CLR 17/12 A3008 RMK AO2 SLP185 T01670117
KDCA 230252Z 00000KT 10SM CLR 17/11 A3008 RMK AO2 SLP185 T01720111 50005
KDCA 230152Z 00000KT 10SM FEW250 18/11 A3008 RMK AO2 SLP186 T01830106
KDCA 230052Z 29005KT 10SM FEW070 SCT250 21/07 A3007 RMK AO2 SLP182 T02060072
KDCA 222352Z 32008KT 10SM FEW065 SCT250 22/07 A3006 RMK AO2 SLP180 T02170072 10233 20211 53005
KDCA 222252Z 32010KT 10SM SCT065 BKN250 23/08 A3006 RMK AO2 SLP177 T02280078
KDCA 222152Z 31015KT 10SM BKN060 BKN250 23/08 A3005 RMK AO2 SLP177 T02280083
KDCA 222052Z 33010G18KT 10SM BKN060 BKN250 23/09 A3005 RMK AO2 SLP175 T02280089 56018
KDCA 221952Z 35010G18KT 10SM BKN060 BKN250 22/08 A3007 RMK AO2 SLP181 T02170083
KDCA 221852Z 32012G17KT 10SM FEW050 FEW100 SCT250 22/09 A3008 RMK AO2 SLP186 T02170089
KDCA 221752Z 32011G17KT 280V360 10SM FEW045 FEW090 SCT250 21/09 A3010 RMK AO2 SLP193 T02110094 10211 20139 58017
KDCA 221652Z 33013G19KT 10SM SCT045 BKN080 BKN250 21/09 A3013 RMK AO2 SLP201 T02060089
KDCA 221552Z 32011G22KT 10SM BKN040 BKN250 19/09 A3015 RMK AO2 SLP207 T01940094
KDCA 221452Z 31014G20KT 10SM BKN035 BKN250 18/08 A3015 RMK AO2 SLP210 T01830083 51006
KDCA 221352Z 33015G20KT 10SM SCT050 SCT090 BKN250 17/08 A3015 RMK AO2 SLP208 T01720083
KDCA 221252Z 32013KT 10SM BKN085 BKN140 BKN250 15/07 A3015 RMK AO2 SLP208 T01500072
KDCA 221152Z 33008KT 10SM BKN080 OVC150 14/07 A3014 RMK AO2 SLP205 BINOVC W T01390067 10144 20128 53017
KDCA 221052Z 33010KT 10SM BKN075 BKN150 13/07 A3012 RMK AO2 SLP197 T01330067
KDCA 220952Z 32010KT 10SM BKN085 OVC150 13/06 A3011 RMK AO2 SLP195 T01330061
KDCA 220852Z 32007KT 10SM FEW180 BKN200 13/06 A3009 RMK AO2 SLP187 T01280056 55003
KDCA 220752Z 33009KT 10SM FEW100 SCT200 13/06 A3009 RMK AO2 SLP187 T01330056
KDCA 220652Z 33010KT 10SM FEW110 BKN200 14/06 A3007 RMK AO2 SLP183 T01440061
KDCA 220552Z 33009KT 10SM SCT110 14/06 A3010 RMK AO2 SLP191 60000 T01440061 10183 20144 50004
KDCA 220452Z 33012KT 10SM BKN110 16/07 A3010 RMK AO2 SLP193 T01560067 402220111
KDCA 220352Z 32010KT 10SM FEW055 BKN075 BKN150 17/08 A3010 RMK AO2 SLP192 T01670078
KDCA 220252Z 32012KT 10SM BKN055 BKN075 17/08 A3009 RMK AO2 SLP187 60000 T01720078 51016
KDCA 220152Z 34003KT 10SM BKN075 OVC100 18/07 A3007 RMK AO2 RAE16 SLP181 P0000 T01780072
KDCA 220118Z 06005KT 10SM BKN070 OVC090 18/08 A3006 RMK AO2 RAE16 P0000 T01780078
KDCA 220052Z 04007KT 10SM -RA BKN060 OVC070 18/08 A3006 RMK AO2 RAB50 SLP178 P0000 T01780083
KDCA 212352Z 35008KT 10SM BKN065 BKN250 18/07 A3004 RMK AO2 SLP172 T01780072 10222 20178 53015
KDCA 212252Z 35008KT 10SM BKN070 BKN090 BKN250 19/07 A3002 RMK AO2 SLP165 T01940072
KDCA 212152Z 02004KT 10SM BKN070 BKN090 BKN250 20/05 A3000 RMK AO2 SLP159 T02000050
KDCA 212052Z 00000KT 10SM BKN095 BKN250 20/04 A2999 RMK AO2 SLP156 T02000044 55000
KDCA 211952Z 12004KT 10SM BKN075 BKN250 21/06 A2998 RMK AO2 SLP152 T02060056
KDCA 211852Z 12004KT 10SM SCT065 SCT250 19/06 A2999 RMK AO2 SLP154 T01940061
KDCA 211752Z 09004KT 10SM SCT050 20/06 A2999 RMK AO2 SLP156 T02000061 10200 20122 58002
KDCA 211652Z VRB04KT 10SM SCT050 SCT250 19/06 A3000 RMK AO2 SLP157 T01940061
KDCA 211552Z 00000KT 10SM SCT045 SCT250 18/06 A3000 RMK AO2 SLP159 T01830056
KDCA 211452Z 21006KT 10SM SCT042 SCT150 SCT250 17/06 A3000 RMK AO2 SLP158 T01670056 51014
KDCA 211352Z 25005KT 10SM FEW030 SCT150 SCT250 16/07 A2999 RMK AO2 SLP154 T01560067
KDCA 211252Z 19007KT 10SM FEW030 SCT100 SCT250 14/07 A2998 RMK AO2 SLP151 T01390072
KDCA 211152Z 20007KT 10SM FEW020 FEW100 FEW250 12/07 A2996 RMK AO2 SLP144 T01220067 10156 20111 51026
KDCA 211052Z 20005KT 10SM FEW100 FEW250 11/06 A2994 RMK AO2 SLP137 T01110061
KDCA 210952Z 23007KT 10SM FEW095 12/06 A2991 RMK AO2 SLP128 T01170056
KDCA 210852Z 23007KT 10SM FEW095 12/05 A2988 RMK AO2 SLP118 T01220050 53014
KDCA 210752Z 21008KT 10SM SCT095 14/06 A2987 RMK AO2 SLP114 T01390056
KDCA 210652Z 23008KT 10SM OVC095 15/05 A2984 RMK AO2 SLP105 T01500050
KDCA 210552Z 23007KT 10SM BKN060 OVC090 16/05 A2984 RMK AO2 SLP104 T01560050 10200 20156 50011
KDCA 210452Z 22007KT 10SM OVC060 16/04 A2985 RMK AO2 SLP107 T01610044 402330161
KDCA 210352Z 24011KT 10SM BKN065 BKN080 17/04 A2984 RMK AO2 SLP102 T01670039
KDCA 210252Z 22009KT 10SM BKN080 17/04 A2981 RMK AO2 SLP093 T01670044 51020
KDCA 210152Z 21010KT 10SM FEW075 BKN100 BKN250 18/04 A2979 RMK AO2 SLP088 T01780039
KDCA 210052Z 22010KT 10SM FEW070 BKN100 BKN250 19/06 A2977 RMK AO2 PK WND 21029/0006 SLP080 T01890056
KDCA 202352Z 20018G24KT 10SM SCT070 BKN090 BKN100 BKN250 20/05 A2975 RMK AO2 SLP073 T02000050 10233 20200 53029
KDCA 202252Z 19015G20KT 10SM BKN065 BKN080 BKN250 21/07 A2971 RMK AO2 SLP058 T02060072
KDCA 202152Z COR 18015G18KT 10SM BKN070 BKN090 BKN250 22/08 A2969 RMK AO2 SLP052 T02170078